Sweeney Granite Mountains, California Weather observations

Data are for 10 minute period ending at time listed.
 Day   Time   Solar   Ave.   Ave.  Ave.  Vector  Max.   Baro.   Total    
  of    of     Rad.   Air    Rel.  Wind   Wind   Wind  Press.  Precip.   
Year   Day            Temp.  Hum.  Speed  Dir.   Gust                    
2016   (PST)  Kw/m2    F      %     mph   deg.    mph    mb.     in.     
-------------------------------------------------------------------------
  35   22:10   0.00   40.8    36   15.1   314    24.3   878.8    0.00 
  35   22:20   0.00   41.0    36   17.5   315    27.0   879.0    0.00 
  35   22:30   0.00   40.7    37   17.9   313    27.6   879.0    0.00 
  35   22:40   0.00   40.8    37   17.9   316    29.0   879.0    0.00 
  35   22:50   0.00   40.9    37   17.0   318    23.8   879.1    0.00 
  35   23:00   0.00   40.7    38   17.2   311    26.0   879.0    0.00 
  35   23:10   0.00   40.6    38   18.6   310    28.2   879.0    0.00 
  35   23:20   0.00   40.6    38   17.9   306    25.1   879.0    0.00 
  35   23:30   0.00   40.8    38   18.0   307    27.0   878.9    0.00 
  35   23:40   0.00   40.3    38   17.2   305    25.1   878.9    0.00 
  35   23:50   0.00   40.1    39   17.6   301    24.3   878.8    0.00 
  36    0:00   0.00   40.2    38   17.0   309    24.4   878.8    0.00 
  36    0:10   0.00   40.4    39   18.7   307    27.6   878.8    0.00 
  36    0:20   0.00   40.5    39   20.7   310    28.9   878.6    0.00 
  36    0:30   0.00   40.3    40   19.7   308    28.7   878.6    0.00 
  36    0:40   0.00   40.3    40   18.8   311    27.7   878.7    0.00 
  36    0:50   0.00   40.2    40   17.7   316    26.7   878.7    0.00 
  36    1:00   0.00   40.6    40   16.5   314    24.4   878.6    0.00 
  36    1:10   0.00   40.1    40   14.7   305    21.5   878.6    0.00 
  36    1:20   0.00   41.0    37   14.0   309    19.7   878.6    0.00 
  36    1:30   0.00   41.2    36   12.9   312    19.4   878.7    0.00 
  36    1:40   0.00   41.1    37   14.7   308    20.5   878.7    0.00 
  36    1:50   0.00   41.1    38   13.4   307    19.6   878.8    0.00 
  36    2:00   0.00   40.7    40   15.6   310    23.8   878.8    0.00 
  36    2:10   0.00   40.2    42   17.0   312    28.4   878.8    0.00 
  36    2:20   0.00   40.7    40   19.5   314    26.7   878.7    0.00 
  36    2:30   0.00   40.2    42   19.2   316    26.7   878.7    0.00 
  36    2:40   0.00   40.2    42   18.5   316    26.8   878.7    0.00 
  36    2:50   0.00   40.5    41   19.2   312    27.8   878.6    0.00 
  36    3:00   0.00   40.0    42   17.9   308    26.8   878.6    0.00 
  36    3:10   0.00   39.9    42   17.2   301    25.1   878.6    0.00 
  36    3:20   0.00   39.7    42   17.1   299    23.0   878.6    0.00 
  36    3:30   0.00   39.7    42   16.2   303    21.7   878.6    0.00 
  36    3:40   0.00   40.4    39   16.6   305    21.7   878.6    0.00 
  36    3:50   0.00   40.8    38   16.5   307    23.4   878.6    0.00 
  36    4:00   0.00   41.0    37   16.1   306    23.8   878.6    0.00 
  36    4:10   0.00   41.1    36   13.9   306    20.4   878.7    0.00 
  36    4:20   0.00   41.2    35   14.4   302    20.1   878.7    0.00 
  36    4:30   0.00   41.7    33   12.7   306    18.3   878.7    0.00 
  36    4:40   0.00   42.0    32   12.7   304    17.8   878.7    0.00 
  36    4:50   0.00   42.4    31   12.6   308    17.5   878.8    0.00 
  36    5:00   0.00   42.2    31   10.8   307    18.8   878.8    0.00 
  36    5:10   0.00   43.2    29   10.9   307    19.3   878.8    0.00 
  36    5:20   0.00   42.5    31   13.8   309    22.1   878.8    0.00 
  36    5:30   0.00   41.7    33   15.2   307    24.8   879.0    0.00 
  36    5:40   0.00   40.6    37   18.1   308    25.1   879.1    0.00 
  36    5:50   0.00   40.3    38   19.7   311    28.6   879.2    0.00 
  36    6:00   0.00   40.6    38   19.3   318    26.5   879.1    0.00 
  36    6:10   0.00   41.1    36   17.6   319    23.8   879.2    0.00 
  36    6:20   0.00   40.7    37   16.8   327    27.8   879.4    0.00 
  36    6:30   0.00   41.0    36   15.5   319    24.0   879.5    0.00 
  36    6:40   0.00   40.3    38   19.6   314    28.7   879.7    0.00 
  36    6:50   0.01   40.4    38   19.2   315    26.8   879.9    0.00 
  36    7:00   0.02   40.7    37   18.2   318    26.8   880.1    0.00 
  36    7:10   0.05   40.8    37   17.8   314    27.2   880.1    0.00 
  36    7:20   0.08   40.5    38   20.1   316    30.9   880.2    0.00 
  36    7:30   0.11   40.7    37   20.9   316    29.3   880.4    0.00 
  36    7:40   0.14   40.9    37   19.6   315    30.2   880.4    0.00 
  36    7:50   0.17   40.9    37   20.4   315    28.7   880.3    0.00 
  36    8:00   0.20   40.9    37   20.8   316    31.6   880.4    0.00 
  36    8:10   0.24   41.3    37   21.3   314    29.6   880.4    0.00 
  36    8:20   0.27   41.9    34   20.9   315    30.2   880.5    0.00 
  36    8:30   0.30   42.4    34   19.1   316    26.8   880.5    0.00 
  36    8:40   0.34   43.2    32   17.2   318    23.8   880.6    0.00 
  36    8:50   0.37   44.5    30   16.9   316    23.5   880.6    0.00 
  36    9:00   0.40   45.9    28   15.2   312    20.8   880.6    0.00 
  36    9:10   0.43   47.6    26   13.7   308    20.2   880.6    0.00 
  36    9:20   0.46   48.2    26   13.2   302    20.2   880.7    0.00 
  36    9:30   0.48   47.9    27   13.4   305    18.0   880.8    0.00 
  36    9:40   0.51   48.8    25   12.6   305    19.6   880.9    0.00 
  36    9:50   0.53   50.2    23   11.6   305    17.0   881.0    0.00 
  36   10:00   0.56   50.6    23   11.0   304    17.0   881.0    0.00 
  36   10:10   0.58   51.8    22    9.1   295    13.7   881.0    0.00 
  36   10:20   0.60   53.1    20    8.0   301    14.0   881.0    0.00 
  36   10:30   0.61   53.0    20    9.8   300    15.4   881.1    0.00 
  36   10:40   0.63   52.8    21    7.8   297    13.1   881.1    0.00 
  36   10:50   0.65   53.0    24    4.0   214     7.0   881.1    0.00 
  36   11:00   0.66   53.2    23    4.2   139     9.5   881.2    0.00 
  36   11:10   0.67   53.2    23    3.0   219     9.3   881.3    0.00 
  36   11:20   0.68   54.0    24    3.3   221     8.2   881.1    0.00 
  36   11:30   0.69   54.4    22    5.7    92    11.3   881.1    0.00 
  36   11:40   0.69   53.5    23    6.7   115    12.2   881.0    0.00 
  36   11:50   0.70   53.0    23    6.5   103    11.9   881.0    0.00 
  36   12:00   0.70   52.5    23    4.6     9    10.3   880.8    0.00 
  36   12:10   0.70   53.3    23    4.7   297     9.1   880.7    0.00 
  36   12:20   0.70   53.2    24    2.9    12     8.1   880.6    0.00 
  36   12:30   0.69   53.3    24    5.4    89     9.4   880.5    0.00 
  36   12:40   0.69   52.8    25    5.5   108    11.3   880.3    0.00 
  36   12:50   0.68   53.3    25    5.8   118    12.2   880.2    0.00 
  36   13:00   0.67   52.3    26    3.7   187     8.6   880.2    0.00 
  36   13:10   0.64   53.4    25    2.4   108     8.6   880.2    0.00 
  36   13:20   0.64   52.9    26    5.0   127    10.4   880.2    0.00 
  36   13:30   0.63   52.0    26    5.4   177    11.0   880.1    0.00 
  36   13:40   0.61   52.0    27    4.0   125     7.1   880.1    0.00 
  36   13:50   0.59   52.6    26    4.9   154     8.7   880.1    0.00 
  36   14:00   0.57   52.0    27    4.9   147     8.3   880.1    0.00 
  36   14:10   0.55   52.6    26    5.3    64    10.5   880.0    0.00 
  36   14:20   0.53   52.5    26    3.4    36    11.9   880.0    0.00 
  36   14:30   0.51   52.2    27    7.8   314    15.1   880.0    0.00 
  36   14:40   0.48   51.5    28    9.4   300    13.6   880.0    0.00 
  36   14:50   0.45   51.5    28   10.3   302    16.6   879.9    0.00 
  36   15:00   0.42   50.9    27    9.6   316    16.2   879.9    0.00 
  36   15:10   0.39   50.3    26   11.2   313    17.2   879.9    0.00 
  36   15:20   0.36   49.9    27   11.3   321    19.0   879.8    0.00 
  36   15:30   0.33   49.6    27   11.9   316    23.5   879.7    0.00 
  36   15:40   0.30   49.0    28   11.9   318    22.0   879.6    0.00 
  36   15:50   0.11   48.4    29   11.2   309    19.8   879.5    0.00 
  36   16:00   0.03   47.8    30   10.5   306    19.2   879.3    0.00 
  36   16:10   0.03   47.6    30   10.9   310    18.6   879.1    0.00 
  36   16:20   0.02   47.3    31   11.9   306    18.9   879.0    0.00 
  36   16:30   0.01   47.2    31   11.3   315    19.1   879.0    0.00 
  36   16:40   0.01   46.5    32   13.3   306    21.7   879.1    0.00 
  36   16:50   0.01   46.1    32   13.1   306    21.9   879.2    0.00 
  36   17:00   0.01   46.0    32   13.6   310    20.3   879.2    0.00 
  36   17:10   0.00   45.8    32   14.4   307    24.2   879.3    0.00 
  36   17:20   0.00   45.7    33   12.6   312    18.6   879.3    0.00 
  36   17:30   0.00   45.6    33   12.4   311    17.6   879.3    0.00 
  36   17:40   0.00   45.5    33   13.2   309    19.9   879.3    0.00 
  36   17:50   0.00   45.5    33   12.9   309    17.9   879.4    0.00 
  36   18:00   0.00   45.5    33   13.6   314    19.0   879.5    0.00 
  36   18:10   0.00   45.4    33   12.8   316    19.7   879.6    0.00 
  36   18:20   0.00   45.3    33   13.1   314    18.0   879.8    0.00 
  36   18:30   0.00   45.3    33   12.6   320    19.1   879.8    0.00 
  36   18:40   0.00   45.1    33   12.5   316    19.9   879.8    0.00 
  36   18:50   0.00   44.8    33   14.8   312    24.3   879.8    0.00 
  36   19:00   0.00   44.4    34   16.5   308    25.4   879.9    0.00 
  36   19:10   0.00   44.3    34   15.7   307    27.1   879.8    0.00 
  36   19:20   0.00   44.3    34   18.2   307    25.9   879.7    0.00 
  36   19:30   0.00   44.3    33   17.4   307    25.7   879.7    0.00 
  36   19:40   0.00   44.9    32   14.6   308    23.1   879.7    0.00 
  36   19:50   0.00   44.9    32   15.5   304    21.3   879.6    0.00 
  36   20:00   0.00   45.5    30   13.1   312    20.2   879.6    0.00 
  36   20:10   0.00   46.0    29   12.8   310    20.2   879.6    0.00 
  36   20:20   0.00   46.4    28   13.7   304    19.1   879.6    0.00 
  36   20:30   0.00   46.4    28   11.3   298    16.1   879.8    0.00 
  36   20:40   0.00   46.0    28   12.1   303    16.3   880.0    0.00 
  36   20:50   0.00   46.3    27   11.3   313    15.2   880.0    0.00 
  36   21:00   0.00   46.6    26   10.4   311    16.3   880.0    0.00 
  36   21:10   0.00   46.8    26   10.2   316    14.7   880.1    0.00 
  36   21:20   0.00   46.6    26    9.2   313    13.4   880.0    0.00 
  36   21:30   0.00   46.0    26    8.8   308    11.8   880.0    0.00 
  36   21:40   0.00   45.3    27    7.0   301    10.4   880.1    0.00 
  36   21:50   0.00   44.9    27    6.4   305     9.1   880.1    0.00 
  36   22:00   0.00   45.0    26    4.1   286     7.4   880.1    0.00 

Return to Sweeney Granite Mountains graphs page.


Western Regional Climate Center,wrcc@dri.edu